createdAt,value
2016-04-29T00:00:11.830Z,38.91
2016-04-29T00:01:11.286Z,38.91
2016-04-29T00:02:10.570Z,39.01
2016-04-29T00:03:11.291Z,38.91
2016-04-29T00:04:11.310Z,38.91
2016-04-29T00:05:11.313Z,38.91
2016-04-29T00:06:11.330Z,38.81
2016-04-29T00:07:11.333Z,38.91
2016-04-29T00:08:11.320Z,38.81
2016-04-29T00:09:11.338Z,38.81
2016-04-29T00:10:11.341Z,39.01
2016-04-29T00:11:11.344Z,39.11
2016-04-29T00:12:11.363Z,38.91
2016-04-29T00:13:11.348Z,39.39
2016-04-29T00:14:11.382Z,38.72
2016-04-29T00:15:11.284Z,39.01
2016-04-29T00:16:11.467Z,38.81
2016-04-29T00:17:11.525Z,38.81
2016-04-29T00:18:11.567Z,38.91
2016-04-29T00:19:11.617Z,39.29
2016-04-29T00:20:11.634Z,39.39
2016-04-29T00:21:11.650Z,39.29
2016-04-29T00:22:11.668Z,39.01
2016-04-29T00:23:11.700Z,39.39
2016-04-29T00:24:11.698Z,39.2
2016-04-29T00:25:11.706Z,38.72
2016-04-29T00:26:11.713Z,38.81
2016-04-29T00:27:11.737Z,39.01
2016-04-29T00:28:11.744Z,38.81
2016-04-29T00:29:11.766Z,38.81
2016-04-29T00:30:12.256Z,38.81
2016-04-29T00:31:11.775Z,39.2
2016-04-29T00:32:11.780Z,39.2
2016-04-29T00:33:11.784Z,39.2
2016-04-29T00:34:11.805Z,39.2
2016-04-29T00:35:11.808Z,39.01
2016-04-29T00:36:11.812Z,39.2
2016-04-29T00:37:11.815Z,38.79
2016-04-29T00:38:11.834Z,38.81
2016-04-29T00:39:11.822Z,39.29
2016-04-29T00:40:11.842Z,39.29
2016-04-29T00:41:11.859Z,39.39
2016-04-29T00:42:11.862Z,39.29
2016-04-29T00:43:11.865Z,38.91
2016-04-29T18:19:16.828Z,32.24
2016-04-29T18:20:17.003Z,32.44
2016-04-29T18:21:17.022Z,32.24
2016-04-29T18:22:17.010Z,32.34
2016-04-29T18:23:17.013Z,32.44
2016-04-29T18:24:17.015Z,32.73
2016-04-29T18:25:17.049Z,32.73
2016-04-29T22:35:37.309Z,35
2016-04-29T22:36:37.311Z,35
2016-04-29T22:37:37.314Z,35
2016-04-29T22:38:37.317Z,35.1
2016-04-29T22:39:37.320Z,35.1
2016-04-29T22:40:37.338Z,35.1
2016-04-29T22:41:37.341Z,35.1
2016-04-29T22:42:37.343Z,35
2016-04-29T22:43:37.361Z,35
2016-04-29T22:44:37.364Z,35
2016-04-29T22:45:37.366Z,34.52
2016-04-29T22:46:37.228Z,35.1
2016-04-29T22:47:37.232Z,34.8
2016-04-29T22:48:39.281Z,35.1
2016-04-29T22:49:37.393Z,35.1
2016-04-29T22:50:37.411Z,35
2016-04-29T22:51:37.399Z,34.42
2016-04-29T22:52:37.260Z,35.19
2016-04-29T22:53:37.435Z,34.9
2016-04-29T22:54:37.423Z,34.8
2016-04-29T22:55:37.441Z,35.1
2016-04-29T22:56:37.443Z,35.19
2016-04-29T22:57:37.447Z,34.7
2016-04-29T22:58:37.449Z,34.8
2016-04-29T22:59:37.468Z,35.19
2016-04-29T23:00:37.455Z,35
2016-04-29T23:01:37.473Z,34.7
2016-04-29T23:02:37.318Z,35
2016-04-29T23:03:37.587Z,35.1
2016-04-29T23:04:37.496Z,35.1
2016-04-29T23:05:37.515Z,34.7
2016-04-29T23:06:37.502Z,34.8
2016-04-29T23:07:37.364Z,34.8
2016-04-29T23:08:37.522Z,34.8
2016-04-29T23:09:37.526Z,34.8
2016-04-29T23:10:37.544Z,34.8
2016-04-29T23:11:37.562Z,35
2016-04-29T23:12:37.549Z,34.8
2016-04-29T23:13:37.568Z,34.8
2016-04-29T23:14:37.570Z,34.7
2016-04-29T23:15:37.573Z,34.8
2016-04-29T23:16:37.576Z,34.8
2016-04-29T23:17:37.578Z,34.8
2016-04-29T23:18:37.425Z,34.7
2016-04-29T23:19:37.599Z,34.7
2016-04-29T23:20:37.617Z,34.8
2016-04-29T23:21:37.620Z,34.8
2016-04-29T23:22:37.622Z,34.7
2016-04-29T23:23:37.626Z,34.8
2016-04-29T23:24:37.628Z,34.61
2016-04-29T23:25:37.662Z,34.8
2016-04-29T23:26:37.633Z,34.8
2016-04-29T23:27:37.652Z,34.7
2016-04-29T23:28:37.499Z,34.61
2016-04-29T23:29:37.674Z,34.8
2016-04-29T23:30:37.676Z,34.7
2016-04-29T23:31:37.679Z,34.8
2016-04-29T23:32:37.697Z,34.8
2016-04-29T23:33:37.684Z,34.7
2016-04-29T23:34:37.702Z,35
2016-04-29T23:35:37.549Z,35
2016-04-29T23:36:37.723Z,35
2016-04-29T23:37:37.710Z,35.19
2016-04-29T23:38:37.712Z,35
2016-04-29T23:39:37.731Z,35
2016-04-29T23:40:37.749Z,35.38
2016-04-29T23:41:37.736Z,35.38
2016-04-29T23:42:37.754Z,35
2016-04-29T23:43:37.757Z,35
2016-04-29T23:44:37.745Z,35.19
2016-04-29T23:45:37.622Z,35.19
2016-04-29T23:46:37.765Z,35.1
2016-04-29T23:47:37.784Z,35.1
2016-04-29T23:48:37.646Z,35.19
2016-04-29T23:49:37.649Z,35.19
2016-04-29T23:50:37.808Z,35.19
2016-04-29T23:51:37.858Z,35.1
2016-04-29T23:52:37.813Z,35
2016-04-29T23:53:37.816Z,35.1
2016-04-29T23:54:37.850Z,35.1
2016-04-29T23:55:37.852Z,35.1
2016-04-29T23:56:37.855Z,35.1
2016-04-29T23:57:37.857Z,34.98
2016-04-29T23:58:37.844Z,35.1
2016-04-29T23:59:37.863Z,35.08
